Time;durP1;ratioP1;P1;durP2;ratioP2;P2;SDS_P1;SDS_P2;PMS_P1;PMS_P2;Temp;Humidity;BMP_temperature;BMP_pressure;BME280_temperature;BME280_humidity;BME280_pressure;Samples;Min_cycle;Max_cycle;Signal;HPM_P1;HPM_P2
2022/01/25 00:24:24;;;;;;;68.75;37.13;;;3.80;99.90;;;;;;5146959;27;20054;-76
2022/01/25 00:27:08;;;;;;;65.97;36.45;;;3.80;99.90;;;;;;5135427;27;20497;-77
2022/01/25 00:29:48;;;;;;;71.38;34.78;;;3.80;99.90;;;;;;5139649;27;20051;-75
2022/01/25 00:32:15;;;;;;;60.38;34.85;;;3.80;99.90;;;;;;5124121;27;20047;-76
2022/01/25 00:34:41;;;;;;;67.15;37.80;;;3.80;99.90;;;;;;5142909;27;20047;-77
2022/01/25 00:37:08;;;;;;;63.08;35.90;;;3.80;99.90;;;;;;5122493;27;20057;-75
2022/01/25 00:39:37;;;;;;;55.10;35.00;;;3.80;99.90;;;;;;5152518;27;20115;-75
2022/01/25 00:42:04;;;;;;;71.88;36.63;;;3.80;99.90;;;;;;5140221;27;20075;-76
2022/01/25 00:44:35;;;;;;;64.68;37.05;;;3.80;99.90;;;;;;5122261;27;20046;-76
2022/01/25 00:47:02;;;;;;;63.35;34.17;;;3.80;99.90;;;;;;5124010;27;20043;-75
2022/01/25 00:49:29;;;;;;;64.05;36.72;;;3.80;99.90;;;;;;5118056;27;20062;-76
2022/01/25 00:52:06;;;;;;;66.07;34.60;;;3.80;99.90;;;;;;5111626;28;20065;-76
2022/01/25 00:54:34;;;;;;;64.97;36.95;;;3.80;99.90;;;;;;5116452;27;20437;-77
2022/01/25 00:57:01;;;;;;;74.93;38.78;;;3.80;99.90;;;;;;5116378;27;20044;-77
2022/01/25 00:59:27;;;;;;;63.50;36.35;;;3.80;99.90;;;;;;5115659;27;20055;-76
2022/01/25 01:01:54;;;;;;;65.28;35.42;;;3.80;99.90;;;;;;5114590;27;20040;-77
2022/01/25 01:04:20;;;;;;;65.80;36.97;;;3.80;99.90;;;;;;5112209;27;20055;-76
2022/01/25 01:06:47;;;;;;;69.95;36.15;;;3.80;99.90;;;;;;5125118;27;20051;-75
2022/01/25 01:09:14;;;;;;;70.22;36.25;;;3.80;99.90;;;;;;5122359;27;20034;-77
2022/01/25 01:11:45;;;;;;;67.90;35.95;;;3.70;99.90;;;;;;5130284;27;20432;-77
2022/01/25 01:14:18;;;;;;;73.32;38.45;;;3.70;99.90;;;;;;5129154;27;20061;-77
2022/01/25 01:30:39;;;;;;;63.63;36.55;;;3.70;99.90;;;;;;5129473;27;20047;-76
2022/01/25 01:33:30;;;;;;;70.00;37.78;;;3.70;99.90;;;;;;5115620;27;20056;-77
2022/01/25 01:36:32;;;;;;;66.38;38.15;;;3.70;99.90;;;;;;5119887;27;20403;-78
2022/01/25 01:41:56;;;;;;;66.07;37.55;;;3.80;99.90;;;;;;5125416;27;20055;-76
2022/01/25 01:44:23;;;;;;;73.35;37.90;;;3.70;99.90;;;;;;5124744;27;20059;-75
2022/01/25 01:47:04;;;;;;;70.97;40.17;;;3.70;99.90;;;;;;5130960;27;20130;-77
2022/01/25 01:49:37;;;;;;;65.28;39.15;;;3.70;99.90;;;;;;5125122;27;20122;-76
2022/01/25 01:52:04;;;;;;;75.68;37.80;;;3.70;99.90;;;;;;5110729;28;20054;-75
2022/01/25 01:54:30;;;;;;;70.60;37.45;;;3.70;99.90;;;;;;5122803;27;20104;-77
2022/01/25 01:56:57;;;;;;;72.18;39.17;;;3.70;99.90;;;;;;5119605;27;20069;-78
2022/01/25 01:59:23;;;;;;;69.55;37.70;;;3.70;99.90;;;;;;5113341;28;20051;-75
2022/01/25 02:01:50;;;;;;;62.42;37.30;;;3.70;99.90;;;;;;5111487;28;20410;-77
2022/01/25 02:04:17;;;;;;;67.25;36.45;;;3.70;99.90;;;;;;5122746;28;20650;-77
2022/01/25 02:06:43;;;;;;;72.28;38.65;;;3.70;99.90;;;;;;5126379;28;20492;-77
2022/01/25 02:09:10;;;;;;;67.40;38.53;;;3.60;99.90;;;;;;5131398;28;20047;-77
2022/01/25 02:11:36;;;;;;;67.25;38.38;;;3.60;99.90;;;;;;5126742;28;20054;-75
2022/01/25 02:14:06;;;;;;;64.57;36.95;;;3.60;99.90;;;;;;5131284;28;20054;-77
2022/01/25 02:16:40;;;;;;;63.15;34.13;;;3.70;99.90;;;;;;5115811;27;20106;-76
2022/01/25 02:24:36;;;;;;;63.20;37.38;;;3.70;99.90;;;;;;5111774;28;20395;-76
2022/01/25 02:27:02;;;;;;;73.30;40.10;;;3.70;99.90;;;;;;5119635;28;20054;-77
2022/01/25 02:29:29;;;;;;;68.35;39.22;;;3.70;99.90;;;;;;5121694;28;20051;-77
2022/01/25 02:31:55;;;;;;;76.68;38.60;;;3.70;99.90;;;;;;5112306;28;20047;-76
2022/01/25 02:34:22;;;;;;;71.25;38.05;;;3.70;99.90;;;;;;5117992;28;20047;-77
2022/01/25 02:36:48;;;;;;;70.22;39.60;;;3.60;99.90;;;;;;5131210;28;20061;-77
2022/01/25 02:39:15;;;;;;;69.80;37.95;;;3.70;99.90;;;;;;5121403;28;20440;-77
2022/01/25 02:41:41;;;;;;;71.18;38.75;;;3.60;99.90;;;;;;5120158;28;20514;-77
2022/01/25 02:44:08;;;;;;;71.80;41.45;;;3.60;99.90;;;;;;5117822;28;20054;-77
2022/01/25 02:49:19;;;;;;;67.40;39.83;;;3.60;99.90;;;;;;5113480;28;20047;-76
2022/01/25 02:51:46;;;;;;;72.43;40.17;;;3.60;99.90;;;;;;5119975;28;20043;-77
2022/01/25 02:54:12;;;;;;;75.50;39.80;;;3.60;99.90;;;;;;5113907;27;20095;-76
2022/01/25 02:56:39;;;;;;;71.88;39.40;;;3.60;99.90;;;;;;5114222;28;20051;-77
2022/01/25 02:59:06;;;;;;;71.32;39.13;;;3.60;99.90;;;;;;5143805;27;20049;-77
2022/01/25 03:01:33;;;;;;;72.70;39.72;;;3.60;99.90;;;;;;5139327;27;20054;-75
2022/01/25 03:03:59;;;;;;;78.68;40.70;;;3.60;99.90;;;;;;5145995;27;20043;-77
2022/01/25 03:06:26;;;;;;;77.18;40.47;;;3.60;99.90;;;;;;5147698;27;20047;-77
2022/01/25 03:08:52;;;;;;;75.13;39.35;;;3.60;99.90;;;;;;5118472;27;20055;-77
2022/01/25 03:11:20;;;;;;;65.63;38.10;;;3.60;99.90;;;;;;5120634;27;20043;-76
2022/01/25 03:13:51;;;;;;;70.88;37.58;;;3.60;99.90;;;;;;5145018;27;20047;-77
2022/01/25 03:16:22;;;;;;;77.32;41.10;;;3.60;99.90;;;;;;5121342;27;20085;-77
2022/01/25 03:18:49;;;;;;;;;;;3.60;99.90;;;;;;5126245;27;20047;-76
2022/01/25 03:21:20;;;;;;;75.78;41.78;;;3.60;99.90;;;;;;5142087;27;19984;-77
2022/01/25 03:23:46;;;;;;;81.32;40.60;;;3.60;99.90;;;;;;5145688;27;20129;-75
2022/01/25 03:26:13;;;;;;;77.93;39.97;;;3.60;99.90;;;;;;5121252;27;20043;-77
2022/01/25 03:28:39;;;;;;;72.95;39.63;;;3.60;99.90;;;;;;5120011;27;20054;-76
2022/01/25 03:31:06;;;;;;;73.78;41.50;;;3.60;99.90;;;;;;5125536;27;20061;-78
2022/01/25 03:33:32;;;;;;;72.90;41.90;;;3.60;99.90;;;;;;5143212;27;20046;-77
2022/01/25 03:35:59;;;;;;;76.60;42.55;;;3.60;99.90;;;;;;5142302;27;20410;-76
2022/01/25 03:38:26;;;;;;;87.38;44.33;;;3.60;99.90;;;;;;5154985;27;20657;-76
2022/01/25 03:40:52;;;;;;;70.07;40.83;;;3.60;99.90;;;;;;5142568;27;20050;-77
2022/01/25 03:43:19;;;;;;;67.90;40.67;;;3.60;99.90;;;;;;5134205;27;20039;-75
2022/01/25 03:45:57;;;;;;;73.80;40.83;;;3.60;99.90;;;;;;5154576;27;20042;-77
2022/01/25 03:51:08;;;;;;;83.30;43.55;;;3.60;99.90;;;;;;5139724;27;20047;-77
2022/01/25 03:53:35;;;;;;;75.80;43.63;;;3.60;99.90;;;;;;5117187;27;20471;-76
2022/01/25 03:56:01;;;;;;;75.18;40.83;;;3.60;99.90;;;;;;5130353;27;20516;-76
2022/01/25 03:58:28;;;;;;;79.88;42.08;;;3.60;99.90;;;;;;5116807;27;20058;-77
2022/01/25 04:00:54;;;;;;;78.53;42.33;;;3.60;99.90;;;;;;5148480;27;20043;-76
2022/01/25 04:03:28;;;;;;;78.30;42.10;;;3.60;99.90;;;;;;5134760;27;20118;-77
2022/01/25 04:05:57;;;;;;;74.70;42.25;;;3.60;99.90;;;;;;5126673;27;20082;-77
2022/01/25 04:08:23;;;;;;;85.25;43.83;;;3.60;99.90;;;;;;5137597;27;20134;-77
2022/01/25 04:10:50;;;;;;;86.65;42.00;;;3.60;99.90;;;;;;5125910;27;20390;-77
2022/01/25 04:13:16;;;;;;;80.90;43.45;;;3.60;99.90;;;;;;5125848;27;20493;-77
2022/01/25 04:15:45;;;;;;;74.63;40.83;;;3.60;99.90;;;;;;5135814;27;20488;-76
2022/01/25 04:18:24;;;;;;;80.13;42.03;;;3.60;99.90;;;;;;5124750;27;20050;-77
2022/01/25 04:21:00;;;;;;;71.00;41.05;;;3.60;99.90;;;;;;5124419;27;20119;-77
2022/01/25 04:26:07;;;;;;;85.28;43.97;;;3.60;99.90;;;;;;5084889;27;20042;-76
2022/01/25 04:28:34;;;;;;;74.88;40.88;;;3.60;99.90;;;;;;5121259;27;20135;-75
2022/01/25 04:31:00;;;;;;;68.38;43.17;;;3.60;99.90;;;;;;5149430;27;20065;-76
2022/01/25 04:33:38;;;;;;;77.90;43.80;;;3.60;99.90;;;;;;5147613;27;20499;-76
2022/01/25 04:36:24;;;;;;;81.10;41.30;;;3.60;99.90;;;;;;5149108;27;20478;-77
2022/01/25 04:49:52;;;;;;;81.18;40.90;;;3.60;99.90;;;;;;5117646;27;20047;-75
2022/01/25 04:52:21;;;;;;;75.35;42.20;;;3.60;99.90;;;;;;5115132;27;20097;-77
2022/01/25 04:54:54;;;;;;;74.80;40.38;;;3.60;99.90;;;;;;5116860;27;20516;-75
2022/01/25 04:57:33;;;;;;;73.45;41.38;;;3.60;99.90;;;;;;5134305;27;20047;-77
2022/01/25 05:00:04;;;;;;;72.75;44.10;;;3.60;99.90;;;;;;5121109;27;20089;-77
2022/01/25 05:02:41;;;;;;;;;;;3.60;99.90;;;;;;5116006;27;20428;-77
2022/01/25 05:05:13;;;;;;;68.13;38.90;;;3.50;99.90;;;;;;5129568;27;19973;-77
2022/01/25 05:07:45;;;;;;;73.43;41.38;;;3.60;99.90;;;;;;5121869;27;20062;-77
2022/01/25 05:10:12;;;;;;;76.00;40.42;;;3.60;99.90;;;;;;5120825;27;20490;-78
2022/01/25 05:12:43;;;;;;;87.22;44.75;;;3.60;99.90;;;;;;5115310;27;20421;-77
2022/01/25 05:15:22;;;;;;;81.07;43.00;;;3.60;99.90;;;;;;5143055;27;20047;-77
2022/01/25 05:18:01;;;;;;;81.97;44.53;;;3.60;99.90;;;;;;5121013;27;20108;-77
2022/01/25 05:23:11;;;;;;;70.70;40.72;;;3.60;99.90;;;;;;5137027;27;20050;-76
2022/01/25 05:25:38;;;;;;;73.90;39.60;;;3.60;99.90;;;;;;5151560;27;20046;-77
2022/01/25 05:28:04;;;;;;;75.75;41.35;;;3.60;99.90;;;;;;5128151;27;20051;-75
2022/01/25 05:30:31;;;;;;;77.68;43.75;;;3.60;99.90;;;;;;5121298;27;20074;-77
2022/01/25 05:32:57;;;;;;;74.10;40.33;;;3.60;99.90;;;;;;5129035;27;20489;-77
2022/01/25 05:35:24;;;;;;;83.60;42.55;;;3.60;99.90;;;;;;5133458;27;20054;-75
2022/01/25 05:37:50;;;;;;;72.88;40.65;;;3.60;99.90;;;;;;5135386;27;20409;-76
2022/01/25 05:40:27;;;;;;;80.10;42.35;;;3.60;99.90;;;;;;5115067;27;20042;-77
2022/01/25 05:45:50;;;;;;;75.90;40.63;;;3.60;99.90;;;;;;5144380;27;20107;-77
2022/01/25 05:48:17;;;;;;;78.57;39.78;;;3.60;99.90;;;;;;5139773;27;20061;-77
2022/01/25 05:50:43;;;;;;;71.40;40.83;;;3.60;99.90;;;;;;5136856;27;20055;-75
2022/01/25 05:53:10;;;;;;;73.82;41.55;;;3.60;99.90;;;;;;5144184;27;20054;-77
2022/01/25 05:55:36;;;;;;;77.90;42.78;;;3.60;99.90;;;;;;5130965;27;20043;-76
2022/01/25 05:58:03;;;;;;;79.18;43.08;;;3.60;99.90;;;;;;5119666;27;20389;-77
2022/01/25 06:00:29;;;;;;;78.75;44.25;;;3.60;99.90;;;;;;5143965;27;20481;-77
2022/01/25 06:02:56;;;;;;;77.85;43.60;;;3.60;99.90;;;;;;5118107;28;20062;-76
2022/01/25 06:05:23;;;;;;;73.50;41.08;;;3.60;99.90;;;;;;5139858;27;20039;-77
2022/01/25 06:07:49;;;;;;;70.50;39.67;;;3.60;99.90;;;;;;5135162;27;20043;-77
2022/01/25 06:10:16;;;;;;;86.07;43.03;;;3.60;99.90;;;;;;5145072;27;20043;-77
2022/01/25 06:12:44;;;;;;;76.18;41.60;;;3.60;99.90;;;;;;5145100;27;20417;-77
2022/01/25 06:15:11;;;;;;;73.32;41.72;;;3.60;99.90;;;;;;5141866;27;20111;-77
2022/01/25 06:17:37;;;;;;;66.85;41.55;;;3.60;99.90;;;;;;5131777;27;20512;-76
2022/01/25 06:20:04;;;;;;;67.43;41.85;;;3.60;99.90;;;;;;5151058;27;20054;-77
2022/01/25 06:22:31;;;;;;;68.50;40.05;;;3.70;99.90;;;;;;5147182;27;20046;-76
2022/01/25 06:24:57;;;;;;;78.53;41.63;;;3.70;99.90;;;;;;5130723;27;20046;-76
2022/01/25 06:27:24;;;;;;;83.47;42.58;;;3.60;99.90;;;;;;5149454;27;20478;-75
2022/01/25 06:29:50;;;;;;;79.13;40.53;;;3.70;99.90;;;;;;5119243;27;20515;-75
2022/01/25 06:32:18;;;;;;;76.25;41.80;;;3.60;99.90;;;;;;5121296;27;20059;-77
2022/01/25 06:34:45;;;;;;;77.07;40.03;;;3.70;99.90;;;;;;5143649;27;20149;-77
2022/01/25 06:37:12;;;;;;;79.97;44.30;;;3.70;99.90;;;;;;5142918;27;20035;-77
2022/01/25 06:39:39;;;;;;;72.90;41.65;;;3.70;99.90;;;;;;5120871;28;20055;-77
2022/01/25 06:42:05;;;;;;;73.88;39.10;;;3.70;99.90;;;;;;5150811;27;20058;-76
2022/01/25 06:44:34;;;;;;;76.30;42.28;;;3.70;99.90;;;;;;5148179;27;20047;-77
2022/01/25 06:47:00;;;;;;;74.75;40.25;;;3.70;99.90;;;;;;5137857;27;20092;-77
2022/01/25 06:49:27;;;;;;;71.47;41.05;;;3.70;99.90;;;;;;5145355;27;20550;-77
2022/01/25 06:51:53;;;;;;;77.32;44.17;;;3.70;99.90;;;;;;5132024;27;20050;-77
2022/01/25 06:54:20;;;;;;;78.60;42.50;;;3.70;99.90;;;;;;5123679;27;20043;-78
2022/01/25 06:56:46;;;;;;;86.38;43.45;;;3.70;99.90;;;;;;5146767;27;20043;-77
2022/01/25 06:59:13;;;;;;;86.07;42.78;;;3.70;99.90;;;;;;5150148;27;20050;-77
2022/01/25 07:01:39;;;;;;;70.50;40.85;;;3.70;99.90;;;;;;5137040;27;20046;-75
2022/01/25 07:04:06;;;;;;;69.25;40.28;;;3.70;99.90;;;;;;5149674;27;20055;-77
2022/01/25 07:06:32;;;;;;;77.53;41.45;;;3.60;99.90;;;;;;5135544;27;20053;-77
2022/01/25 07:09:00;;;;;;;77.13;41.47;;;3.70;99.90;;;;;;5124576;27;20050;-77
2022/01/25 07:11:28;;;;;;;70.63;39.05;;;3.70;99.90;;;;;;5121821;27;20075;-77
2022/01/25 07:13:55;;;;;;;79.05;42.25;;;3.70;99.90;;;;;;5149229;27;20053;-77
2022/01/25 07:16:22;;;;;;;73.18;38.22;;;3.70;99.90;;;;;;5144676;27;20046;-78
2022/01/25 07:18:49;;;;;;;76.88;41.75;;;3.70;99.90;;;;;;5147477;27;20546;-76
2022/01/25 07:21:15;;;;;;;76.15;41.97;;;3.60;99.90;;;;;;5137829;27;20432;-77
2022/01/25 07:23:42;;;;;;;71.43;38.38;;;3.70;99.90;;;;;;5119238;27;20152;-77
2022/01/25 07:26:09;;;;;;;71.63;39.35;;;3.70;99.90;;;;;;5135396;27;20066;-77
2022/01/25 07:28:36;;;;;;;74.93;39.28;;;3.60;99.90;;;;;;5120970;27;20054;-77
2022/01/25 07:31:03;;;;;;;80.35;41.67;;;3.60;99.90;;;;;;5121983;27;20043;-78
2022/01/25 07:33:29;;;;;;;74.80;41.72;;;3.60;99.90;;;;;;5148359;27;20056;-77
2022/01/25 07:35:56;;;;;;;76.25;39.92;;;3.70;99.90;;;;;;5133765;27;20481;-76
2022/01/25 07:38:22;;;;;;;74.00;40.53;;;3.70;99.90;;;;;;5154930;27;20482;-77
2022/01/25 07:40:49;;;;;;;76.90;40.80;;;3.70;99.90;;;;;;5123859;27;20061;-77
2022/01/25 07:43:15;;;;;;;74.93;40.35;;;3.70;99.90;;;;;;5146696;27;20055;-76
2022/01/25 07:45:42;;;;;;;78.80;43.90;;;3.70;99.90;;;;;;5132097;27;20047;-76
2022/01/25 07:48:09;;;;;;;70.88;39.35;;;3.70;99.90;;;;;;5142134;27;20074;-77
2022/01/25 07:50:35;;;;;;;74.70;40.17;;;3.70;99.90;;;;;;5127489;27;20062;-77
2022/01/25 07:53:02;;;;;;;77.93;42.80;;;3.70;99.90;;;;;;5127949;27;20054;-77
2022/01/25 07:55:29;;;;;;;73.80;41.38;;;3.70;99.90;;;;;;5155246;27;20050;-77
2022/01/25 07:57:55;;;;;;;86.00;42.13;;;3.70;99.90;;;;;;5141864;27;20481;-77
2022/01/25 08:00:22;;;;;;;74.78;39.15;;;3.70;99.90;;;;;;5148007;27;20050;-77
2022/01/25 08:02:48;;;;;;;68.70;41.50;;;3.70;99.90;;;;;;5145857;27;20051;-76
2022/01/25 08:05:15;;;;;;;89.93;44.70;;;3.70;99.90;;;;;;5122266;27;20042;-76
2022/01/25 08:07:41;;;;;;;72.15;42.17;;;3.70;99.90;;;;;;5134085;27;20038;-77
2022/01/25 08:10:08;;;;;;;81.38;40.67;;;3.70;99.90;;;;;;5130702;27;20058;-77
2022/01/25 08:12:34;;;;;;;74.55;40.75;;;3.70;99.90;;;;;;5125555;27;20059;-76
2022/01/25 08:15:03;;;;;;;79.88;42.20;;;3.70;99.90;;;;;;5145625;27;20043;-77
2022/01/25 08:17:30;;;;;;;83.05;42.50;;;3.70;99.90;;;;;;5150625;27;20039;-77
2022/01/25 08:19:56;;;;;;;74.35;40.50;;;3.70;99.90;;;;;;5124852;27;20055;-77
2022/01/25 08:22:24;;;;;;;80.35;40.08;;;3.70;99.90;;;;;;5118659;27;20054;-78
2022/01/25 08:24:50;;;;;;;73.70;39.30;;;3.80;99.90;;;;;;5118208;27;20055;-76
2022/01/25 08:27:19;;;;;;;77.70;39.42;;;3.80;99.90;;;;;;5144253;27;20050;-76
2022/01/25 08:29:46;;;;;;;69.72;40.67;;;3.80;99.90;;;;;;5135112;27;20128;-76
2022/01/25 08:32:13;;;;;;;79.25;41.40;;;3.80;99.90;;;;;;5134357;27;20047;-77
2022/01/25 08:34:39;;;;;;;82.82;42.58;;;3.80;99.90;;;;;;5115687;27;20089;-77
2022/01/25 08:37:06;;;;;;;79.63;42.80;;;3.80;99.90;;;;;;5125619;27;20047;-77
2022/01/25 08:39:32;;;;;;;88.68;44.45;;;3.80;99.90;;;;;;5149217;27;20524;-77
2022/01/25 08:41:59;;;;;;;82.60;44.15;;;3.80;99.90;;;;;;5134854;27;20058;-77
2022/01/25 08:44:25;;;;;;;77.20;39.33;;;3.80;99.90;;;;;;5128378;27;20047;-77
2022/01/25 08:46:52;;;;;;;81.00;43.55;;;3.80;99.90;;;;;;5151567;27;20039;-76
2022/01/25 08:49:20;;;;;;;79.95;41.67;;;3.80;99.90;;;;;;5131176;27;20054;-77
2022/01/25 08:51:48;;;;;;;78.80;43.38;;;3.80;99.90;;;;;;5130329;27;20043;-77
2022/01/25 08:54:14;;;;;;;72.47;41.90;;;3.80;99.90;;;;;;5132769;27;20444;-77
2022/01/25 08:56:41;;;;;;;72.97;41.25;;;3.80;99.90;;;;;;5131631;27;20390;-77
2022/01/25 08:59:08;;;;;;;78.07;41.33;;;3.90;99.90;;;;;;5150808;27;20443;-77
2022/01/25 09:01:34;;;;;;;74.45;38.03;;;3.80;99.90;;;;;;5133604;27;20412;-77
2022/01/25 09:04:01;;;;;;;75.32;40.00;;;3.90;99.90;;;;;;5149504;27;20385;-78
2022/01/25 09:06:27;;;;;;;82.70;43.03;;;3.90;99.90;;;;;;5132360;27;20047;-77
2022/01/25 09:08:54;;;;;;;84.75;40.92;;;3.90;99.90;;;;;;5132517;27;20054;-77
2022/01/25 09:11:20;;;;;;;70.10;40.97;;;3.90;99.90;;;;;;5133271;27;20043;-77
2022/01/25 09:13:47;;;;;;;69.22;39.40;;;3.90;99.90;;;;;;5129431;27;20054;-77
2022/01/25 09:16:13;;;;;;;71.05;40.20;;;3.90;99.90;;;;;;5130883;27;20051;-75
2022/01/25 09:18:40;;;;;;;72.68;39.38;;;3.90;99.90;;;;;;5132539;27;20041;-77
2022/01/25 09:21:06;;;;;;;71.78;38.03;;;3.90;99.90;;;;;;5131931;27;20050;-76
2022/01/25 09:23:33;;;;;;;69.72;38.50;;;3.90;99.90;;;;;;5148713;27;20051;-77
2022/01/25 09:26:01;;;;;;;81.72;41.85;;;3.90;99.90;;;;;;5129059;27;20042;-76
2022/01/25 09:28:28;;;;;;;75.07;40.47;;;3.90;99.90;;;;;;5147958;27;20058;-76
2022/01/25 09:30:54;;;;;;;69.47;38.88;;;3.90;99.90;;;;;;5148427;27;20055;-77
2022/01/25 09:33:21;;;;;;;73.13;42.10;;;3.90;99.90;;;;;;5147991;27;20042;-77
2022/01/25 09:35:47;;;;;;;72.15;38.67;;;3.90;99.90;;;;;;5131311;27;20045;-77
2022/01/25 09:38:14;;;;;;;88.40;42.70;;;3.90;99.90;;;;;;5131943;27;20047;-77
2022/01/25 09:40:40;;;;;;;81.07;42.45;;;4.00;99.90;;;;;;5129344;27;20077;-77
2022/01/25 09:43:07;;;;;;;82.55;42.58;;;4.00;99.90;;;;;;5133351;27;20050;-77
2022/01/25 09:45:34;;;;;;;76.97;40.85;;;4.00;99.90;;;;;;5132078;27;20074;-78
2022/01/25 09:48:00;;;;;;;75.20;41.95;;;3.90;99.90;;;;;;5132621;27;20043;-77
2022/01/25 09:50:27;;;;;;;81.38;41.28;;;4.00;99.90;;;;;;5149259;27;20078;-77
2022/01/25 09:52:54;;;;;;;76.88;42.40;;;3.90;99.90;;;;;;5131296;27;20039;-77
2022/01/25 09:55:20;;;;;;;68.00;40.80;;;3.90;99.90;;;;;;5151545;27;20042;-77
2022/01/25 09:57:47;;;;;;;82.40;41.30;;;3.90;99.90;;;;;;5132163;27;20057;-77
2022/01/25 10:00:13;;;;;;;79.65;42.45;;;3.90;99.90;;;;;;5132104;27;20053;-77
2022/01/25 10:02:44;;;;;;;72.35;41.08;;;3.90;99.90;;;;;;5150036;27;20038;-77
2022/01/25 10:05:11;;;;;;;81.82;40.95;;;3.90;99.90;;;;;;5150064;27;20078;-77
2022/01/25 10:07:37;;;;;;;72.68;38.22;;;4.00;99.90;;;;;;5148924;27;20053;-77
2022/01/25 10:10:04;;;;;;;74.88;40.50;;;4.00;99.90;;;;;;5150055;27;20047;-77
2022/01/25 10:12:30;;;;;;;78.10;41.50;;;3.90;99.90;;;;;;5130426;27;20058;-77
2022/01/25 10:14:57;;;;;;;88.05;40.92;;;3.90;99.90;;;;;;5152584;27;20053;-77
2022/01/25 10:17:23;;;;;;;82.25;41.85;;;3.90;99.90;;;;;;5134115;27;20069;-80
2022/01/25 10:19:50;;;;;;;79.47;41.45;;;3.90;99.90;;;;;;5152986;27;20096;-77
2022/01/25 10:22:16;;;;;;;82.72;43.05;;;3.90;99.90;;;;;;5150236;27;20039;-77
2022/01/25 10:24:43;;;;;;;86.60;42.03;;;3.90;99.90;;;;;;5133826;27;20061;-77
2022/01/25 10:27:10;;;;;;;87.38;43.35;;;3.90;99.90;;;;;;5131519;27;20054;-76
2022/01/25 10:29:36;;;;;;;79.38;41.70;;;3.90;99.90;;;;;;5150030;27;20057;-77
2022/01/25 10:32:04;;;;;;;78.55;43.20;;;3.90;99.90;;;;;;5142597;27;20054;-77
2022/01/25 10:34:31;;;;;;;72.32;38.50;;;4.00;99.90;;;;;;5143309;27;20089;-77
2022/01/25 10:36:59;;;;;;;85.45;44.05;;;3.90;99.90;;;;;;5147729;27;20047;-77
2022/01/25 10:39:26;;;;;;;73.68;41.72;;;4.00;99.90;;;;;;5156384;27;20477;-77
2022/01/25 10:41:53;;;;;;;79.32;41.03;;;4.00;99.90;;;;;;5134086;27;20470;-77
2022/01/25 10:44:19;;;;;;;76.07;43.30;;;4.00;99.90;;;;;;5134346;27;20480;-77
2022/01/25 10:46:46;;;;;;;73.68;43.03;;;4.00;99.90;;;;;;5133087;27;20485;-77
2022/01/25 10:49:12;;;;;;;73.38;39.80;;;4.00;99.90;;;;;;5149955;27;20061;-76
2022/01/25 10:51:39;;;;;;;82.22;41.92;;;4.00;99.90;;;;;;5148136;27;20054;-78
2022/01/25 10:54:05;;;;;;;82.93;42.08;;;4.00;99.90;;;;;;5136028;27;20042;-76
2022/01/25 10:56:32;;;;;;;74.65;39.65;;;4.00;99.90;;;;;;5135911;27;20050;-77
2022/01/25 10:58:58;;;;;;;69.45;40.92;;;4.00;99.90;;;;;;5136134;27;20070;-77
2022/01/25 11:01:25;;;;;;;79.55;42.38;;;4.00;99.90;;;;;;5132060;27;20070;-77
2022/01/25 11:03:51;;;;;;;83.55;42.17;;;4.00;99.90;;;;;;5135780;27;20492;-75
2022/01/25 11:06:18;;;;;;;77.72;44.38;;;4.00;99.90;;;;;;5147062;27;20039;-77
2022/01/25 11:08:44;;;;;;;78.25;42.03;;;4.00;99.90;;;;;;5131472;27;20513;-77
2022/01/25 11:11:12;;;;;;;73.60;42.17;;;4.00;99.90;;;;;;5125960;27;20039;-77
2022/01/25 11:13:41;;;;;;;77.78;42.30;;;4.00;99.90;;;;;;5123937;27;20538;-78
2022/01/25 11:16:08;;;;;;;88.13;43.47;;;4.00;99.90;;;;;;5146188;27;20408;-77
2022/01/25 11:18:34;;;;;;;80.95;43.17;;;4.00;99.90;;;;;;5131921;27;20074;-77
2022/01/25 11:21:01;;;;;;;84.85;44.10;;;4.00;99.90;;;;;;5128396;27;20050;-77
2022/01/25 11:23:28;;;;;;;80.70;42.33;;;4.00;99.90;;;;;;5151747;27;20409;-77
2022/01/25 11:25:54;;;;;;;93.13;44.42;;;4.00;99.90;;;;;;5125703;27;20116;-77
2022/01/25 11:28:21;;;;;;;81.60;43.75;;;4.00;99.90;;;;;;5127350;27;20047;-77
2022/01/25 11:30:47;;;;;;;76.90;42.90;;;4.00;99.90;;;;;;5152331;27;20096;-76
2022/01/25 11:33:14;;;;;;;84.60;44.72;;;4.00;99.90;;;;;;5152522;27;20039;-77
2022/01/25 11:35:40;;;;;;;98.55;43.08;;;4.00;99.90;;;;;;5136134;27;20054;-78
2022/01/25 11:38:07;;;;;;;89.78;46.08;;;4.00;99.90;;;;;;5121230;27;20051;-77
2022/01/25 11:40:34;;;;;;;82.72;43.20;;;4.00;99.90;;;;;;5150308;27;20054;-77
2022/01/25 11:43:00;;;;;;;80.45;43.05;;;4.00;99.90;;;;;;5149021;27;20126;-77
2022/01/25 11:45:27;;;;;;;79.80;43.85;;;4.00;99.90;;;;;;5132183;27;20050;-78
2022/01/25 11:47:53;;;;;;;84.47;44.92;;;4.00;99.90;;;;;;5131610;27;20177;-77
2022/01/25 11:50:20;;;;;;;84.72;41.95;;;4.00;99.90;;;;;;5123297;27;20054;-76
2022/01/25 11:52:46;;;;;;;83.95;42.90;;;4.00;99.90;;;;;;5130534;27;20051;-78
2022/01/25 11:55:13;;;;;;;84.82;45.13;;;4.00;99.90;;;;;;5132398;27;20054;-77
2022/01/25 11:57:40;;;;;;;84.93;44.33;;;4.00;99.90;;;;;;5134848;27;20058;-76
2022/01/25 12:00:06;;;;;;;85.60;42.67;;;4.00;99.90;;;;;;5152632;27;20055;-77
2022/01/25 12:02:33;;;;;;;86.03;46.13;;;4.00;99.90;;;;;;5134541;27;20043;-77
2022/01/25 12:04:59;;;;;;;90.15;43.55;;;4.00;99.90;;;;;;5132873;27;20053;-77
2022/01/25 12:07:35;;;;;;;82.32;45.42;;;4.00;99.90;;;;;;5153971;27;20068;-77
2022/01/25 12:10:13;;;;;;;89.70;46.38;;;4.00;99.90;;;;;;5151059;27;20054;-77
2022/01/25 12:12:40;;;;;;;90.20;45.00;;;4.00;99.90;;;;;;5133269;27;20397;-77
2022/01/25 12:15:06;;;;;;;81.55;45.95;;;4.00;99.90;;;;;;5124672;27;20114;-78
2022/01/25 12:17:33;;;;;;;90.35;45.90;;;4.00;99.90;;;;;;5128454;27;20059;-77
2022/01/25 12:19:59;;;;;;;88.60;42.03;;;4.00;99.90;;;;;;5129808;27;20047;-78
2022/01/25 12:22:26;;;;;;;83.35;45.20;;;4.00;99.90;;;;;;5126615;27;20504;-77
2022/01/25 12:25:01;;;;;;;94.05;46.90;;;4.00;99.90;;;;;;5123134;27;20081;-77
2022/01/25 12:27:29;;;;;;;85.03;45.10;;;4.00;99.90;;;;;;5126498;27;20092;-77
2022/01/25 12:29:56;;;;;;;86.00;44.05;;;4.00;99.90;;;;;;5139761;27;20414;-76
2022/01/25 12:32:23;;;;;;;87.05;43.78;;;4.00;99.90;;;;;;5140785;27;20047;-77
2022/01/25 12:34:50;;;;;;;81.32;44.78;;;4.00;99.90;;;;;;5126997;27;20121;-77
2022/01/25 12:37:16;;;;;;;92.15;45.50;;;4.00;99.90;;;;;;5136576;27;20042;-77
2022/01/25 12:39:43;;;;;;;88.72;47.10;;;4.00;99.90;;;;;;5144429;27;20058;-77
2022/01/25 12:42:10;;;;;;;93.18;43.15;;;4.00;99.90;;;;;;5126785;27;20163;-77
2022/01/25 12:44:37;;;;;;;89.65;43.97;;;4.00;99.90;;;;;;5139692;27;20055;-77
2022/01/25 12:47:03;;;;;;;80.68;44.15;;;4.00;99.90;;;;;;5147616;27;20430;-77
2022/01/25 12:49:30;;;;;;;86.03;44.72;;;4.00;99.90;;;;;;5120524;27;20478;-77
2022/01/25 12:51:57;;;;;;;78.78;40.88;;;4.00;99.90;;;;;;5124287;27;20054;-77
2022/01/25 12:54:25;;;;;;;82.40;43.78;;;4.00;99.90;;;;;;5142128;27;20557;-77
2022/01/25 12:56:52;;;;;;;87.45;43.88;;;4.00;99.90;;;;;;5120683;27;20081;-78
2022/01/25 12:59:18;;;;;;;83.80;45.20;;;4.00;99.90;;;;;;5147264;27;20473;-77
2022/01/25 13:01:45;;;;;;;81.65;42.08;;;4.00;99.90;;;;;;5116830;27;20414;-76
2022/01/25 13:04:12;;;;;;;80.40;43.60;;;4.00;99.90;;;;;;5116193;27;20086;-77
2022/01/25 13:06:38;;;;;;;89.15;43.50;;;4.00;99.90;;;;;;5114502;27;20104;-77
2022/01/25 13:09:09;;;;;;;85.13;43.97;;;4.00;99.90;;;;;;5123939;27;20046;-77
2022/01/25 13:11:47;;;;;;;80.20;42.00;;;4.00;99.90;;;;;;5141162;27;20058;-77
2022/01/25 13:14:33;;;;;;;81.68;39.92;;;4.00;99.90;;;;;;5118077;27;20481;-77
2022/01/25 13:16:59;;;;;;;85.82;43.15;;;4.00;99.90;;;;;;5133695;27;20051;-77
2022/01/25 13:19:26;;;;;;;89.82;46.72;;;4.00;99.90;;;;;;5137288;27;20054;-77
2022/01/25 13:21:53;;;;;;;85.57;42.95;;;4.00;99.90;;;;;;5115108;27;20047;-78
2022/01/25 13:24:19;;;;;;;83.28;41.35;;;4.00;99.90;;;;;;5125292;27;20046;-77
2022/01/25 13:26:46;;;;;;;77.60;41.83;;;4.00;99.90;;;;;;5142506;27;20054;-78
2022/01/25 13:32:08;;;;;;;80.95;41.88;;;4.00;99.90;;;;;;5056250;28;20067;-77
2022/01/25 13:34:36;;;;;;;83.50;45.05;;;4.00;99.90;;;;;;5118900;27;20055;-77
2022/01/25 13:37:03;;;;;;;89.05;42.65;;;4.00;99.90;;;;;;5130080;27;20047;-77
2022/01/25 13:39:30;;;;;;;81.97;41.20;;;4.00;99.90;;;;;;5141411;27;20500;-77
2022/01/25 13:41:56;;;;;;;78.60;44.05;;;4.00;99.90;;;;;;5127472;27;20057;-77
2022/01/25 13:47:07;;;;;;;79.05;40.92;;;4.00;99.90;;;;;;5113124;27;20051;-77
2022/01/25 13:49:33;;;;;;;87.05;43.15;;;4.00;99.90;;;;;;5116047;27;20055;-77
2022/01/25 13:52:00;;;;;;;86.32;43.50;;;4.00;99.90;;;;;;5144909;27;20124;-78
2022/01/25 13:54:27;;;;;;;81.22;42.58;;;4.00;99.90;;;;;;5141653;27;20069;-77
2022/01/25 13:56:54;;;;;;;80.40;43.33;;;4.00;99.90;;;;;;5121059;27;20051;-78